Bow Clipper — LAUU4 — position and weather

sailwx.info

Track history (hours):
 
Tides and Currents Weather Stations Pressure Air Temp Water Temp Dewpoint Dewpoint Depression Visibility Wind Speed Wind Dir Waves Ship Positions

Bow Clipper

Last reported at 2017-May-21 21:12 UTC. Time now 2017-May-24 13:30 UTC.
Position N 29°21' W 094°46'.

Length 188 m; draft 6.1 m.

Type: Ship (hazmat cat B). MMSI: 258946991.

Date/timePositionNaut miles runAvg speedWind from/ knotsBaromVisibWave heightAir tempDewpointWater temp
2017-May-21 21:12N 29°21' W 094°46'211.3
2017-May-21 21:00N 29°22' W 094°49'4 7.6
2017-May-21 20:28N 29°23' W 094°53'0 0.0
2017-May-21 02:23N 29°23' W 094°54'1 1.4
2017-May-21 01:58N 29°23' W 094°53'3 6.1
2017-May-21 01:30N 29°22' W 094°50'3 6.2
2017-May-21 01:00N 29°21' W 094°47'3 6.5
2017-May-21 00:29N 29°23' W 094°49'612.1
2017-May-21 00:00N 29°29' W 094°51'611.9
2017-May-20 23:30N 29°34' W 094°55'611.5
2017-May-20 23:00N 29°39' W 094°58'5 9.5
2017-May-20 22:30N 29°43' W 095°01'4 7.4
2017-May-20 22:00N 29°45' W 095°04'3 5.9
2017-May-20 21:30N 29°44' W 095°07'3 5.6
2017-May-20 21:00N 29°45' W 095°10'3 5.1
2017-May-20 20:31N 29°43' W 095°13'1 0.0
2017-May-19 05:54N 29°43' W 095°14'0 1.0
2017-May-19 05:30N 29°43' W 095°14'1 1.8
2017-May-19 05:00N 29°43' W 095°13'2 4.8
2017-May-19 04:30N 29°45' W 095°11'3 5.6
2017-May-19 04:00N 29°44' W 095°08'3 5.7
2017-May-19 03:30N 29°46' W 095°05'4 7.4
2017-May-19 03:01N 29°44' W 095°02'4 8.8
2017-May-19 02:31N 29°40' W 094°59'611.4
2017-May-19 02:00N 29°35' W 094°56'611.9
2017-May-19 01:30N 29°30' W 094°52'611.9
2017-May-19 00:59N 29°25' W 094°49'4 0.1
2017-May-17 07:23N 29°21' W 094°47'512.9
2017-May-17 06:58N 29°25' W 094°50'612.7
2017-May-17 06:30N 29°31' W 094°53'612.2
2017-May-17 06:00N 29°36' W 094°57'3 6.7
2017-May-17 05:30N 29°37' W 095°00'1 1.8
2017-May-17 04:55N 29°37' W 095°01'0 0.0
2017-May-17 04:28N 29°37' W 095°01'0 0.0
2017-May-17 03:58N 29°37' W 095°01'0 0.0
2017-May-17 03:28N 29°37' W 095°01'0 0.0
2017-May-17 02:58N 29°37' W 095°01'0 0.0
2017-May-17 02:28N 29°37' W 095°01'0 0.0
2017-May-17 01:58N 29°37' W 095°01'0 0.0
2017-May-17 01:28N 29°37' W 095°01'0 0.0
2017-May-17 00:58N 29°37' W 095°01'0 0.0
2017-May-17 00:28N 29°37' W 095°01'0 0.0
2017-May-16 23:58N 29°37' W 095°01'0 0.0
2017-May-16 23:28N 29°37' W 095°01'0 0.0
2017-May-16 23:00N 29°37' W 095°01'0 0.0
2017-May-16 22:30N 29°37' W 095°01'0 0.0
2017-May-16 22:00N 29°37' W 095°01'0 0.0
2017-May-16 21:28N 29°37' W 095°01'0 0.0
2017-May-16 21:00N 29°37' W 095°01'0 0.0
2017-May-16 20:29N 29°37' W 095°01'0 0.0
2017-May-16 19:59N 29°37' W 095°01'0 0.0
2017-May-16 19:29N 29°37' W 095°01'0 0.0
2017-May-16 18:59N 29°37' W 095°01'0 0.0
2017-May-16 18:30N 29°37' W 095°01'0 0.0
2017-May-16 17:59N 29°37' W 095°01'0 0.0
2017-May-16 17:29N 29°37' W 095°01'0 0.0
2017-May-16 16:59N 29°37' W 095°01'0 0.0
2017-May-16 16:29N 29°37' W 095°01'0 0.0
2017-May-16 15:58N 29°37' W 095°01'0 0.0
2017-May-16 15:28N 29°37' W 095°01'0 0.0
2017-May-16 14:58N 29°37' W 095°01'0 0.0
2017-May-16 14:27N 29°37' W 095°01'0 0.0
2017-May-16 13:30N 29°37' W 095°01'0 0.0
2017-May-16 13:00N 29°37' W 095°01'0 0.0
2017-May-16 12:30N 29°37' W 095°01'0 0.0
2017-May-16 11:59N 29°37' W 095°01'0 0.0
2017-May-16 11:30N 29°37' W 095°01'0 0.0
2017-May-16 10:59N 29°37' W 095°01'0 0.0
2017-May-16 10:31N 29°37' W 095°01'0 0.7
2017-May-16 10:00N 29°37' W 095°01'3 5.5
2017-May-16 09:31N 29°37' W 094°58'4 7.3
2017-May-16 09:00N 29°40' W 094°59'4 7.5
2017-May-16 08:30N 29°43' W 095°01'3 5.8
2017-May-16 08:00N 29°45' W 095°04'3 5.4
2017-May-16 07:30N 29°44' W 095°07'2 4.0
2017-May-16 07:00N 29°44' W 095°09'0 0.0
2017-May-14 18:15N 29°44' W 095°09'0 0.6
2017-May-14 18:00N 29°44' W 095°09'3 6.0
2017-May-14 17:30N 29°45' W 095°06'4 7.6
2017-May-14 17:01N 29°44' W 095°02'5 9.0
2017-May-14 16:30N 29°40' W 094°59'3 6.9
2017-May-14 16:01N 29°37' W 094°59'2 3.6
2017-May-14 15:30N 29°37' W 095°01'0 0.0
2017-May-14 14:56N 29°37' W 095°01'0 0.0
2017-May-14 14:29N 29°37' W 095°01'0 0.0
2017-May-14 13:28N 29°37' W 095°01'0 0.0
2017-May-14 13:00N 29°37' W 095°01'0 0.0
2017-May-14 12:28N 29°37' W 095°01'0 0.0
2017-May-14 11:58N 29°37' W 095°01'0 0.0
2017-May-14 11:28N 29°37' W 095°01'0 0.0
2017-May-14 10:58N 29°37' W 095°01'0 0.0
2017-May-14 10:28N 29°37' W 095°01'0 0.0
2017-May-14 10:00N 29°37' W 095°01'0 0.0
2017-May-14 09:29N 29°37' W 095°01'0 0.0
2017-May-14 08:59N 29°37' W 095°01'0 0.0
2017-May-14 08:29N 29°37' W 095°01'0 0.0
2017-May-14 07:59N 29°37' W 095°01'0 0.0
2017-May-14 07:29N 29°37' W 095°01'0 0.0
2017-May-14 06:59N 29°37' W 095°01'0 0.0
2017-May-14 06:23N 29°37' W 095°01'0 0.0
2017-May-14 05:59N 29°37' W 095°01'0 0.0
2017-May-14 05:29N 29°37' W 095°01'0 0.0
2017-May-14 04:59N 29°37' W 095°01'0 0.0
2017-May-14 04:29N 29°37' W 095°01'0 0.0
2017-May-14 03:59N 29°37' W 095°01'0 0.0
2017-May-14 03:29N 29°37' W 095°01'0 0.0
2017-May-14 02:58N 29°37' W 095°01'0 0.0
2017-May-14 02:28N 29°37' W 095°01'0 0.0
2017-May-14 01:58N 29°37' W 095°01'0 0.0
2017-May-14 01:28N 29°37' W 095°01'0 0.0
2017-May-14 00:58N 29°37' W 095°01'0 0.0
2017-May-14 00:28N 29°37' W 095°01'0 0.0
2017-May-13 23:58N 29°37' W 095°01'0 0.0
2017-May-13 23:28N 29°37' W 095°01'0 0.0
2017-May-13 22:58N 29°37' W 095°01'0 0.0
2017-May-13 22:28N 29°37' W 095°01'0 0.0
2017-May-13 21:55N 29°37' W 095°01'0 0.0
2017-May-13 21:28N 29°37' W 095°01'0 0.0
2017-May-13 20:58N 29°37' W 095°01'0 0.0
2017-May-13 20:28N 29°37' W 095°01'0 0.0
2017-May-13 19:58N 29°37' W 095°01'0 0.0
2017-May-13 19:30N 29°37' W 095°01'0 0.0
2017-May-13 19:00N 29°37' W 095°01'0 0.0
2017-May-13 18:30N 29°37' W 095°01'0 0.0
2017-May-13 18:00N 29°37' W 095°01'0 0.0
2017-May-13 17:30N 29°37' W 095°01'0 0.0
2017-May-13 17:00N 29°37' W 095°01'0 0.0
2017-May-13 16:30N 29°37' W 095°01'2 4.4
2017-May-13 16:00N 29°37' W 094°59'3 7.0
2017-May-13 15:30N 29°40' W 094°59'4 8.1
2017-May-13 15:00N 29°44' W 095°01'4 8.0
2017-May-13 14:30N 29°45' W 095°06'6 5.8
2017-May-13 13:30N 29°44' W 095°12'2 3.3
2017-May-13 13:00N 29°43' W 095°14'0 0.0
2017-May-13 12:30N 29°43' W 095°14'0 0.0
2017-May-13 12:00N 29°43' W 095°14'0 0.0
2017-May-13 11:30N 29°43' W 095°14'0 0.0
2017-May-11 23:02N 29°43' W 095°14'0 0.7
2017-May-11 23:00N 29°43' W 095°14'0 0.4
2017-May-11 22:30N 29°43' W 095°14'3 5.2
2017-May-11 22:00N 29°45' W 095°12'3 6.3
2017-May-11 21:30N 29°44' W 095°08'  
Track history (hours):
 
Tides and Currents Weather Stations Pressure Air Temp Water Temp Dewpoint Dewpoint Depression Visibility Wind Speed Wind Dir Waves Ship Positions

Bow Clipper

Last reported at 2017-May-21 21:12 UTC. Time now 2017-May-24 13:30 UTC.
Position N 29°21' W 094°46'.

Length 188 m; draft 6.1 m.

Type: Ship (hazmat cat B). MMSI: 258946991.

Date/timePositionNaut miles runAvg speedWind from/ knotsBaromVisibWave heightAir tempDewpointWater temp
2017-May-21 21:12N 29°21' W 094°46'211.3
2017-May-21 21:00N 29°22' W 094°49'4 7.6
2017-May-21 20:28N 29°23' W 094°53'0 0.0
2017-May-21 02:23N 29°23' W 094°54'1 1.4
2017-May-21 01:58N 29°23' W 094°53'3 6.1
2017-May-21 01:30N 29°22' W 094°50'3 6.2
2017-May-21 01:00N 29°21' W 094°47'3 6.5
2017-May-21 00:29N 29°23' W 094°49'612.1
2017-May-21 00:00N 29°29' W 094°51'611.9
2017-May-20 23:30N 29°34' W 094°55'611.5
2017-May-20 23:00N 29°39' W 094°58'5 9.5
2017-May-20 22:30N 29°43' W 095°01'4 7.4
2017-May-20 22:00N 29°45' W 095°04'3 5.9
2017-May-20 21:30N 29°44' W 095°07'3 5.6
2017-May-20 21:00N 29°45' W 095°10'3 5.1
2017-May-20 20:31N 29°43' W 095°13'1 0.0
2017-May-19 05:54N 29°43' W 095°14'0 1.0
2017-May-19 05:30N 29°43' W 095°14'1 1.8
2017-May-19 05:00N 29°43' W 095°13'2 4.8
2017-May-19 04:30N 29°45' W 095°11'3 5.6
2017-May-19 04:00N 29°44' W 095°08'3 5.7
2017-May-19 03:30N 29°46' W 095°05'4 7.4
2017-May-19 03:01N 29°44' W 095°02'4 8.8
2017-May-19 02:31N 29°40' W 094°59'611.4
2017-May-19 02:00N 29°35' W 094°56'611.9
2017-May-19 01:30N 29°30' W 094°52'611.9
2017-May-19 00:59N 29°25' W 094°49'4 0.1
2017-May-17 07:23N 29°21' W 094°47'512.9
2017-May-17 06:58N 29°25' W 094°50'612.7
2017-May-17 06:30N 29°31' W 094°53'612.2
2017-May-17 06:00N 29°36' W 094°57'3 6.7
2017-May-17 05:30N 29°37' W 095°00'1 1.8
2017-May-17 04:55N 29°37' W 095°01'0 0.0
2017-May-17 04:28N 29°37' W 095°01'0 0.0
2017-May-17 03:58N 29°37' W 095°01'0 0.0
2017-May-17 03:28N 29°37' W 095°01'0 0.0
2017-May-17 02:58N 29°37' W 095°01'0 0.0
2017-May-17 02:28N 29°37' W 095°01'0 0.0
2017-May-17 01:58N 29°37' W 095°01'0 0.0
2017-May-17 01:28N 29°37' W 095°01'0 0.0
2017-May-17 00:58N 29°37' W 095°01'0 0.0
2017-May-17 00:28N 29°37' W 095°01'0 0.0
2017-May-16 23:58N 29°37' W 095°01'0 0.0
2017-May-16 23:28N 29°37' W 095°01'0 0.0
2017-May-16 23:00N 29°37' W 095°01'0 0.0
2017-May-16 22:30N 29°37' W 095°01'0 0.0
2017-May-16 22:00N 29°37' W 095°01'0 0.0
2017-May-16 21:28N 29°37' W 095°01'0 0.0
2017-May-16 21:00N 29°37' W 095°01'0 0.0
2017-May-16 20:29N 29°37' W 095°01'0 0.0
2017-May-16 19:59N 29°37' W 095°01'0 0.0
2017-May-16 19:29N 29°37' W 095°01'0 0.0
2017-May-16 18:59N 29°37' W 095°01'0 0.0
2017-May-16 18:30N 29°37' W 095°01'0 0.0
2017-May-16 17:59N 29°37' W 095°01'0 0.0
2017-May-16 17:29N 29°37' W 095°01'0 0.0
2017-May-16 16:59N 29°37' W 095°01'0 0.0
2017-May-16 16:29N 29°37' W 095°01'0 0.0
2017-May-16 15:58N 29°37' W 095°01'0 0.0
2017-May-16 15:28N 29°37' W 095°01'0 0.0
2017-May-16 14:58N 29°37' W 095°01'0 0.0
2017-May-16 14:27N 29°37' W 095°01'0 0.0
2017-May-16 13:30N 29°37' W 095°01'0 0.0
2017-May-16 13:00N 29°37' W 095°01'0 0.0
2017-May-16 12:30N 29°37' W 095°01'0 0.0
2017-May-16 11:59N 29°37' W 095°01'0 0.0
2017-May-16 11:30N 29°37' W 095°01'0 0.0
2017-May-16 10:59N 29°37' W 095°01'0 0.0
2017-May-16 10:31N 29°37' W 095°01'0 0.7
2017-May-16 10:00N 29°37' W 095°01'3 5.5
2017-May-16 09:31N 29°37' W 094°58'4 7.3
2017-May-16 09:00N 29°40' W 094°59'4 7.5
2017-May-16 08:30N 29°43' W 095°01'3 5.8
2017-May-16 08:00N 29°45' W 095°04'3 5.4
2017-May-16 07:30N 29°44' W 095°07'2 4.0
2017-May-16 07:00N 29°44' W 095°09'0 0.0
2017-May-14 18:15N 29°44' W 095°09'0 0.6
2017-May-14 18:00N 29°44' W 095°09'3 6.0
2017-May-14 17:30N 29°45' W 095°06'4 7.6
2017-May-14 17:01N 29°44' W 095°02'5 9.0
2017-May-14 16:30N 29°40' W 094°59'3 6.9
2017-May-14 16:01N 29°37' W 094°59'2 3.6
2017-May-14 15:30N 29°37' W 095°01'0 0.0
2017-May-14 14:56N 29°37' W 095°01'0 0.0
2017-May-14 14:29N 29°37' W 095°01'0 0.0
2017-May-14 13:28N 29°37' W 095°01'0 0.0
2017-May-14 13:00N 29°37' W 095°01'0 0.0
2017-May-14 12:28N 29°37' W 095°01'0 0.0
2017-May-14 11:58N 29°37' W 095°01'0 0.0
2017-May-14 11:28N 29°37' W 095°01'0 0.0
2017-May-14 10:58N 29°37' W 095°01'0 0.0
2017-May-14 10:28N 29°37' W 095°01'0 0.0
2017-May-14 10:00N 29°37' W 095°01'0 0.0
2017-May-14 09:29N 29°37' W 095°01'0 0.0
2017-May-14 08:59N 29°37' W 095°01'0 0.0
2017-May-14 08:29N 29°37' W 095°01'0 0.0
2017-May-14 07:59N 29°37' W 095°01'0 0.0
2017-May-14 07:29N 29°37' W 095°01'0 0.0
2017-May-14 06:59N 29°37' W 095°01'0 0.0
2017-May-14 06:23N 29°37' W 095°01'0 0.0
2017-May-14 05:59N 29°37' W 095°01'0 0.0
2017-May-14 05:29N 29°37' W 095°01'0 0.0
2017-May-14 04:59N 29°37' W 095°01'0 0.0
2017-May-14 04:29N 29°37' W 095°01'0 0.0
2017-May-14 03:59N 29°37' W 095°01'0 0.0
2017-May-14 03:29N 29°37' W 095°01'0 0.0
2017-May-14 02:58N 29°37' W 095°01'0 0.0
2017-May-14 02:28N 29°37' W 095°01'0 0.0
2017-May-14 01:58N 29°37' W 095°01'0 0.0
2017-May-14 01:28N 29°37' W 095°01'0 0.0
2017-May-14 00:58N 29°37' W 095°01'0 0.0
2017-May-14 00:28N 29°37' W 095°01'0 0.0
2017-May-13 23:58N 29°37' W 095°01'0 0.0
2017-May-13 23:28N 29°37' W 095°01'0 0.0
2017-May-13 22:58N 29°37' W 095°01'0 0.0
2017-May-13 22:28N 29°37' W 095°01'0 0.0
2017-May-13 21:55N 29°37' W 095°01'0 0.0
2017-May-13 21:28N 29°37' W 095°01'0 0.0
2017-May-13 20:58N 29°37' W 095°01'0 0.0
2017-May-13 20:28N 29°37' W 095°01'0 0.0
2017-May-13 19:58N 29°37' W 095°01'0 0.0
2017-May-13 19:30N 29°37' W 095°01'0 0.0
2017-May-13 19:00N 29°37' W 095°01'0 0.0
2017-May-13 18:30N 29°37' W 095°01'0 0.0
2017-May-13 18:00N 29°37' W 095°01'0 0.0
2017-May-13 17:30N 29°37' W 095°01'0 0.0
2017-May-13 17:00N 29°37' W 095°01'0 0.0
2017-May-13 16:30N 29°37' W 095°01'2 4.4
2017-May-13 16:00N 29°37' W 094°59'3 7.0
2017-May-13 15:30N 29°40' W 094°59'4 8.1
2017-May-13 15:00N 29°44' W 095°01'4 8.0
2017-May-13 14:30N 29°45' W 095°06'6 5.8
2017-May-13 13:30N 29°44' W 095°12'2 3.3
2017-May-13 13:00N 29°43' W 095°14'0 0.0
2017-May-13 12:30N 29°43' W 095°14'0 0.0
2017-May-13 12:00N 29°43' W 095°14'0 0.0
2017-May-13 11:30N 29°43' W 095°14'0 0.0
2017-May-11 23:02N 29°43' W 095°14'0 0.7
2017-May-11 23:00N 29°43' W 095°14'0 0.4
2017-May-11 22:30N 29°43' W 095°14'3 5.2
2017-May-11 22:00N 29°45' W 095°12'3 6.3
2017-May-11 21:30N 29°44' W 095°08'  

Dump ship's entire track history